sensor_id;sensor_type;location;lat;lon;timestamp;P1;durP1;ratioP1;P2;durP2;ratioP2
5904;SDS011;2978;42.012;24.880;2022-12-18T00:01:30;30.37;;;15.37;;
5904;SDS011;2978;42.012;24.880;2022-12-18T00:03:58;16.40;;;12.33;;
5904;SDS011;2978;42.012;24.880;2022-12-18T00:06:25;18.87;;;12.90;;
5904;SDS011;2978;42.012;24.880;2022-12-18T00:08:51;17.90;;;12.60;;
5904;SDS011;2978;42.012;24.880;2022-12-18T00:11:18;16.90;;;12.37;;
5904;SDS011;2978;42.012;24.880;2022-12-18T00:13:45;21.90;;;12.80;;
5904;SDS011;2978;42.012;24.880;2022-12-18T00:16:16;21.70;;;13.60;;
5904;SDS011;2978;42.012;24.880;2022-12-18T00:18:45;24.20;;;14.17;;
5904;SDS011;2978;42.012;24.880;2022-12-18T00:21:12;26.87;;;15.00;;
5904;SDS011;2978;42.012;24.880;2022-12-18T00:23:39;20.80;;;13.87;;
5904;SDS011;2978;42.012;24.880;2022-12-18T00:26:07;17.57;;;13.33;;
5904;SDS011;2978;42.012;24.880;2022-12-18T00:28:35;21.57;;;13.87;;
5904;SDS011;2978;42.012;24.880;2022-12-18T00:31:05;16.83;;;13.10;;
5904;SDS011;2978;42.012;24.880;2022-12-18T00:33:32;21.43;;;13.47;;
5904;SDS011;2978;42.012;24.880;2022-12-18T00:36:01;15.27;;;12.23;;
5904;SDS011;2978;42.012;24.880;2022-12-18T00:38:28;51.73;;;30.77;;
5904;SDS011;2978;42.012;24.880;2022-12-18T00:40:53;68.63;;;43.17;;
5904;SDS011;2978;42.012;24.880;2022-12-18T00:43:18;20.20;;;12.20;;
5904;SDS011;2978;42.012;24.880;2022-12-18T00:45:44;9.23;;;5.70;;
5904;SDS011;2978;42.012;24.880;2022-12-18T00:48:10;13.40;;;7.00;;
5904;SDS011;2978;42.012;24.880;2022-12-18T00:50:36;19.23;;;9.10;;
5904;SDS011;2978;42.012;24.880;2022-12-18T00:53:01;14.77;;;7.27;;
5904;SDS011;2978;42.012;24.880;2022-12-18T00:55:27;10.40;;;6.00;;
5904;SDS011;2978;42.012;24.880;2022-12-18T00:57:52;12.83;;;5.47;;
5904;SDS011;2978;42.012;24.880;2022-12-18T01:00:18;13.80;;;5.83;;
5904;SDS011;2978;42.012;24.880;2022-12-18T01:02:43;6.40;;;4.53;;
5904;SDS011;2978;42.012;24.880;2022-12-18T01:05:09;6.90;;;4.67;;
5904;SDS011;2978;42.012;24.880;2022-12-18T01:07:36;6.50;;;4.80;;
5904;SDS011;2978;42.012;24.880;2022-12-18T01:10:02;10.87;;;7.50;;
5904;SDS011;2978;42.012;24.880;2022-12-18T01:12:29;16.23;;;9.27;;
5904;SDS011;2978;42.012;24.880;2022-12-18T01:14:54;16.40;;;8.50;;
5904;SDS011;2978;42.012;24.880;2022-12-18T01:17:20;15.77;;;8.40;;
5904;SDS011;2978;42.012;24.880;2022-12-18T01:19:45;11.83;;;7.13;;
5904;SDS011;2978;42.012;24.880;2022-12-18T01:22:10;11.10;;;6.47;;
5904;SDS011;2978;42.012;24.880;2022-12-18T01:24:36;8.70;;;4.80;;
5904;SDS011;2978;42.012;24.880;2022-12-18T01:27:01;7.20;;;5.93;;
5904;SDS011;2978;42.012;24.880;2022-12-18T01:29:27;9.00;;;6.50;;
5904;SDS011;2978;42.012;24.880;2022-12-18T01:31:54;12.80;;;7.50;;
5904;SDS011;2978;42.012;24.880;2022-12-18T01:34:20;25.30;;;7.80;;
5904;SDS011;2978;42.012;24.880;2022-12-18T01:36:46;13.17;;;7.80;;
5904;SDS011;2978;42.012;24.880;2022-12-18T01:39:12;9.70;;;7.03;;
5904;SDS011;2978;42.012;24.880;2022-12-18T01:41:39;13.43;;;6.63;;
5904;SDS011;2978;42.012;24.880;2022-12-18T01:49:57;22.30;;;15.37;;
5904;SDS011;2978;42.012;24.880;2022-12-18T01:52:27;19.50;;;12.60;;
5904;SDS011;2978;42.012;24.880;2022-12-18T01:54:55;13.50;;;8.43;;
5904;SDS011;2978;42.012;24.880;2022-12-18T01:57:22;20.53;;;12.27;;
5904;SDS011;2978;42.012;24.880;2022-12-18T01:59:49;14.17;;;9.53;;
5904;SDS011;2978;42.012;24.880;2022-12-18T02:02:18;17.90;;;10.73;;
5904;SDS011;2978;42.012;24.880;2022-12-18T02:04:44;21.20;;;11.20;;
5904;SDS011;2978;42.012;24.880;2022-12-18T02:09:56;47.73;;;25.00;;
5904;SDS011;2978;42.012;24.880;2022-12-18T02:12:48;45.20;;;26.00;;
5904;SDS011;2978;42.012;24.880;2022-12-18T02:17:58;52.07;;;29.17;;
5904;SDS011;2978;42.012;24.880;2022-12-18T02:20:34;61.33;;;29.83;;
5904;SDS011;2978;42.012;24.880;2022-12-18T02:26:14;29.30;;;14.37;;
5904;SDS011;2978;42.012;24.880;2022-12-18T02:29:02;18.73;;;11.70;;
5904;SDS011;2978;42.012;24.880;2022-12-18T02:31:31;15.83;;;8.63;;
5904;SDS011;2978;42.012;24.880;2022-12-18T02:34:02;11.70;;;5.47;;
5904;SDS011;2978;42.012;24.880;2022-12-18T02:36:31;6.50;;;4.33;;
5904;SDS011;2978;42.012;24.880;2022-12-18T02:38:58;5.47;;;3.50;;
5904;SDS011;2978;42.012;24.880;2022-12-18T02:41:26;6.83;;;3.27;;
5904;SDS011;2978;42.012;24.880;2022-12-18T02:43:55;12.53;;;3.83;;
5904;SDS011;2978;42.012;24.880;2022-12-18T02:46:26;11.37;;;4.60;;
5904;SDS011;2978;42.012;24.880;2022-12-18T02:57:58;6.70;;;3.70;;
5904;SDS011;2978;42.012;24.880;2022-12-18T03:00:49;7.37;;;4.07;;
5904;SDS011;2978;42.012;24.880;2022-12-18T03:03:30;7.43;;;3.53;;
5904;SDS011;2978;42.012;24.880;2022-12-18T03:06:02;8.97;;;4.23;;
5904;SDS011;2978;42.012;24.880;2022-12-18T03:08:39;13.20;;;3.57;;
5904;SDS011;2978;42.012;24.880;2022-12-18T03:11:09;9.17;;;3.43;;
5904;SDS011;2978;42.012;24.880;2022-12-18T03:13:37;7.60;;;4.20;;
5904;SDS011;2978;42.012;24.880;2022-12-18T03:16:05;10.90;;;4.70;;
5904;SDS011;2978;42.012;24.880;2022-12-18T03:18:37;8.47;;;3.53;;
5904;SDS011;2978;42.012;24.880;2022-12-18T03:21:09;8.20;;;3.27;;
5904;SDS011;2978;42.012;24.880;2022-12-18T03:23:38;9.70;;;3.47;;
5904;SDS011;2978;42.012;24.880;2022-12-18T03:26:09;13.27;;;3.47;;
5904;SDS011;2978;42.012;24.880;2022-12-18T03:28:57;8.20;;;2.90;;
5904;SDS011;2978;42.012;24.880;2022-12-18T03:31:27;4.43;;;3.20;;
5904;SDS011;2978;42.012;24.880;2022-12-18T03:34:00;5.03;;;3.47;;
5904;SDS011;2978;42.012;24.880;2022-12-18T03:36:29;11.93;;;3.50;;
5904;SDS011;2978;42.012;24.880;2022-12-18T03:38:55;6.17;;;3.33;;
5904;SDS011;2978;42.012;24.880;2022-12-18T03:46:28;12.13;;;4.47;;
5904;SDS011;2978;42.012;24.880;2022-12-18T03:49:08;12.40;;;6.10;;
5904;SDS011;2978;42.012;24.880;2022-12-18T03:51:50;18.13;;;8.87;;
5904;SDS011;2978;42.012;24.880;2022-12-18T03:54:22;16.40;;;8.40;;
5904;SDS011;2978;42.012;24.880;2022-12-18T03:56:52;16.43;;;8.63;;
5904;SDS011;2978;42.012;24.880;2022-12-18T03:59:22;16.83;;;8.13;;
5904;SDS011;2978;42.012;24.880;2022-12-18T04:01:50;11.03;;;5.67;;
5904;SDS011;2978;42.012;24.880;2022-12-18T04:04:18;10.50;;;5.10;;
5904;SDS011;2978;42.012;24.880;2022-12-18T04:06:45;10.63;;;5.17;;
5904;SDS011;2978;42.012;24.880;2022-12-18T04:09:13;10.97;;;5.57;;
5904;SDS011;2978;42.012;24.880;2022-12-18T04:11:40;11.80;;;4.93;;
5904;SDS011;2978;42.012;24.880;2022-12-18T04:14:08;9.57;;;4.80;;
5904;SDS011;2978;42.012;24.880;2022-12-18T04:16:34;13.40;;;4.70;;
5904;SDS011;2978;42.012;24.880;2022-12-18T04:18:59;14.50;;;4.40;;
5904;SDS011;2978;42.012;24.880;2022-12-18T04:21:25;10.83;;;5.97;;
5904;SDS011;2978;42.012;24.880;2022-12-18T04:23:50;8.90;;;3.83;;
5904;SDS011;2978;42.012;24.880;2022-12-18T04:26:16;11.60;;;4.43;;
5904;SDS011;2978;42.012;24.880;2022-12-18T04:28:41;13.43;;;3.83;;
5904;SDS011;2978;42.012;24.880;2022-12-18T04:31:06;8.00;;;4.37;;
5904;SDS011;2978;42.012;24.880;2022-12-18T04:33:32;9.50;;;4.47;;
5904;SDS011;2978;42.012;24.880;2022-12-18T04:35:57;8.40;;;5.00;;
5904;SDS011;2978;42.012;24.880;2022-12-18T04:38:23;6.57;;;4.33;;
5904;SDS011;2978;42.012;24.880;2022-12-18T04:40:48;7.20;;;3.40;;
5904;SDS011;2978;42.012;24.880;2022-12-18T04:43:14;8.33;;;3.40;;
5904;SDS011;2978;42.012;24.880;2022-12-18T04:45:39;4.90;;;3.73;;
5904;SDS011;2978;42.012;24.880;2022-12-18T04:48:05;6.53;;;4.00;;
5904;SDS011;2978;42.012;24.880;2022-12-18T04:50:30;10.83;;;5.70;;
5904;SDS011;2978;42.012;24.880;2022-12-18T04:52:57;14.37;;;5.10;;
5904;SDS011;2978;42.012;24.880;2022-12-18T04:55:25;10.90;;;5.97;;
5904;SDS011;2978;42.012;24.880;2022-12-18T04:57:52;14.03;;;4.70;;
5904;SDS011;2978;42.012;24.880;2022-12-18T05:00:17;5.47;;;3.50;;
5904;SDS011;2978;42.012;24.880;2022-12-18T05:02:43;10.00;;;3.90;;
5904;SDS011;2978;42.012;24.880;2022-12-18T05:05:09;5.33;;;3.67;;
5904;SDS011;2978;42.012;24.880;2022-12-18T05:07:34;7.70;;;3.20;;
5904;SDS011;2978;42.012;24.880;2022-12-18T05:10:00;10.10;;;2.90;;
5904;SDS011;2978;42.012;24.880;2022-12-18T05:12:25;6.33;;;2.93;;
5904;SDS011;2978;42.012;24.880;2022-12-18T05:14:51;8.27;;;3.20;;
5904;SDS011;2978;42.012;24.880;2022-12-18T05:17:16;4.20;;;3.40;;
5904;SDS011;2978;42.012;24.880;2022-12-18T05:19:42;6.03;;;3.30;;
5904;SDS011;2978;42.012;24.880;2022-12-18T05:22:07;7.93;;;3.20;;
5904;SDS011;2978;42.012;24.880;2022-12-18T05:24:33;7.63;;;3.73;;
5904;SDS011;2978;42.012;24.880;2022-12-18T05:26:59;8.77;;;4.17;;
5904;SDS011;2978;42.012;24.880;2022-12-18T05:29:24;10.33;;;3.50;;
5904;SDS011;2978;42.012;24.880;2022-12-18T05:31:50;7.53;;;3.93;;
5904;SDS011;2978;42.012;24.880;2022-12-18T05:34:15;9.00;;;3.70;;
5904;SDS011;2978;42.012;24.880;2022-12-18T05:36:41;11.30;;;4.03;;
5904;SDS011;2978;42.012;24.880;2022-12-18T05:39:06;5.00;;;3.70;;
5904;SDS011;2978;42.012;24.880;2022-12-18T05:41:32;18.80;;;6.40;;
5904;SDS011;2978;42.012;24.880;2022-12-18T05:43:58;9.60;;;5.93;;
5904;SDS011;2978;42.012;24.880;2022-12-18T05:46:24;11.30;;;5.63;;
5904;SDS011;2978;42.012;24.880;2022-12-18T05:48:49;8.07;;;5.77;;
5904;SDS011;2978;42.012;24.880;2022-12-18T05:51:16;8.57;;;5.60;;
5904;SDS011;2978;42.012;24.880;2022-12-18T05:53:44;11.20;;;6.10;;
5904;SDS011;2978;42.012;24.880;2022-12-18T05:56:11;11.80;;;6.20;;
5904;SDS011;2978;42.012;24.880;2022-12-18T05:58:41;13.70;;;5.40;;
5904;SDS011;2978;42.012;24.880;2022-12-18T06:01:08;9.20;;;5.60;;
5904;SDS011;2978;42.012;24.880;2022-12-18T06:03:36;12.57;;;6.30;;
5904;SDS011;2978;42.012;24.880;2022-12-18T06:06:01;16.07;;;7.73;;
5904;SDS011;2978;42.012;24.880;2022-12-18T06:08:27;12.73;;;6.53;;
5904;SDS011;2978;42.012;24.880;2022-12-18T06:10:52;14.20;;;5.50;;
5904;SDS011;2978;42.012;24.880;2022-12-18T06:13:18;15.00;;;9.00;;
5904;SDS011;2978;42.012;24.880;2022-12-18T06:15:45;13.90;;;8.33;;
5904;SDS011;2978;42.012;24.880;2022-12-18T06:18:10;12.50;;;8.03;;
5904;SDS011;2978;42.012;24.880;2022-12-18T06:20:35;11.87;;;7.83;;
5904;SDS011;2978;42.012;24.880;2022-12-18T06:23:02;12.10;;;7.60;;
5904;SDS011;2978;42.012;24.880;2022-12-18T06:25:28;21.67;;;10.53;;
5904;SDS011;2978;42.012;24.880;2022-12-18T06:27:53;18.70;;;9.47;;
5904;SDS011;2978;42.012;24.880;2022-12-18T06:30:19;15.87;;;10.47;;
5904;SDS011;2978;42.012;24.880;2022-12-18T06:32:45;14.93;;;10.40;;
5904;SDS011;2978;42.012;24.880;2022-12-18T06:35:10;24.50;;;14.60;;
5904;SDS011;2978;42.012;24.880;2022-12-18T06:37:36;33.40;;;13.57;;
5904;SDS011;2978;42.012;24.880;2022-12-18T06:40:01;21.70;;;12.80;;
5904;SDS011;2978;42.012;24.880;2022-12-18T06:42:28;23.00;;;12.30;;
5904;SDS011;2978;42.012;24.880;2022-12-18T06:44:53;24.73;;;12.20;;
5904;SDS011;2978;42.012;24.880;2022-12-18T06:47:19;21.20;;;10.50;;
5904;SDS011;2978;42.012;24.880;2022-12-18T06:49:44;13.63;;;6.97;;
5904;SDS011;2978;42.012;24.880;2022-12-18T06:52:10;12.37;;;7.97;;
5904;SDS011;2978;42.012;24.880;2022-12-18T06:54:35;22.47;;;9.60;;
5904;SDS011;2978;42.012;24.880;2022-12-18T06:57:00;12.37;;;6.40;;
5904;SDS011;2978;42.012;24.880;2022-12-18T06:59:26;14.20;;;6.20;;
5904;SDS011;2978;42.012;24.880;2022-12-18T07:01:51;14.53;;;6.57;;
5904;SDS011;2978;42.012;24.880;2022-12-18T07:04:17;10.23;;;6.30;;
5904;SDS011;2978;42.012;24.880;2022-12-18T07:06:42;7.07;;;5.10;;
5904;SDS011;2978;42.012;24.880;2022-12-18T07:09:07;12.63;;;5.40;;
5904;SDS011;2978;42.012;24.880;2022-12-18T07:11:33;10.63;;;4.77;;
5904;SDS011;2978;42.012;24.880;2022-12-18T07:13:58;14.33;;;6.20;;
5904;SDS011;2978;42.012;24.880;2022-12-18T07:16:24;14.03;;;6.77;;
5904;SDS011;2978;42.012;24.880;2022-12-18T07:18:51;31.40;;;7.27;;
5904;SDS011;2978;42.012;24.880;2022-12-18T07:21:18;9.47;;;5.73;;
5904;SDS011;2978;42.012;24.880;2022-12-18T07:30:27;35.03;;;24.53;;
5904;SDS011;2978;42.012;24.880;2022-12-18T07:32:52;48.90;;;32.80;;
5904;SDS011;2978;42.012;24.880;2022-12-18T07:35:18;70.47;;;42.13;;
5904;SDS011;2978;42.012;24.880;2022-12-18T07:37:43;62.33;;;44.30;;
5904;SDS011;2978;42.012;24.880;2022-12-18T07:40:09;55.27;;;35.33;;
5904;SDS011;2978;42.012;24.880;2022-12-18T07:42:35;44.60;;;32.53;;
5904;SDS011;2978;42.012;24.880;2022-12-18T07:45:02;31.30;;;22.87;;
5904;SDS011;2978;42.012;24.880;2022-12-18T07:47:28;27.10;;;18.77;;
5904;SDS011;2978;42.012;24.880;2022-12-18T07:49:59;28.50;;;18.20;;
5904;SDS011;2978;42.012;24.880;2022-12-18T07:52:24;26.40;;;18.67;;
5904;SDS011;2978;42.012;24.880;2022-12-18T07:54:50;27.57;;;17.40;;
5904;SDS011;2978;42.012;24.880;2022-12-18T07:57:16;24.03;;;16.20;;
5904;SDS011;2978;42.012;24.880;2022-12-18T07:59:42;21.57;;;16.80;;
5904;SDS011;2978;42.012;24.880;2022-12-18T08:02:07;25.13;;;19.37;;
5904;SDS011;2978;42.012;24.880;2022-12-18T08:04:36;25.47;;;19.73;;
5904;SDS011;2978;42.012;24.880;2022-12-18T08:07:01;34.93;;;23.97;;
5904;SDS011;2978;42.012;24.880;2022-12-18T08:09:27;36.70;;;24.97;;
5904;SDS011;2978;42.012;24.880;2022-12-18T08:11:52;43.23;;;29.10;;
5904;SDS011;2978;42.012;24.880;2022-12-18T08:14:17;37.17;;;26.53;;
5904;SDS011;2978;42.012;24.880;2022-12-18T08:16:43;42.07;;;28.00;;
5904;SDS011;2978;42.012;24.880;2022-12-18T08:19:11;45.77;;;32.23;;
5904;SDS011;2978;42.012;24.880;2022-12-18T08:21:37;39.80;;;28.13;;
5904;SDS011;2978;42.012;24.880;2022-12-18T08:24:02;40.30;;;28.07;;
5904;SDS011;2978;42.012;24.880;2022-12-18T08:26:29;50.30;;;32.70;;
5904;SDS011;2978;42.012;24.880;2022-12-18T08:28:56;39.50;;;26.03;;
5904;SDS011;2978;42.012;24.880;2022-12-18T08:31:23;34.70;;;25.07;;
5904;SDS011;2978;42.012;24.880;2022-12-18T08:33:50;39.47;;;27.57;;
5904;SDS011;2978;42.012;24.880;2022-12-18T08:36:17;29.80;;;20.70;;
5904;SDS011;2978;42.012;24.880;2022-12-18T08:38:44;25.20;;;17.40;;
5904;SDS011;2978;42.012;24.880;2022-12-18T08:41:10;23.50;;;14.37;;
5904;SDS011;2978;42.012;24.880;2022-12-18T08:43:38;25.33;;;15.77;;
5904;SDS011;2978;42.012;24.880;2022-12-18T08:46:22;30.93;;;15.97;;
5904;SDS011;2978;42.012;24.880;2022-12-18T08:48:52;33.53;;;17.43;;
5904;SDS011;2978;42.012;24.880;2022-12-18T08:51:20;26.30;;;20.10;;
5904;SDS011;2978;42.012;24.880;2022-12-18T08:53:45;35.10;;;24.80;;
5904;SDS011;2978;42.012;24.880;2022-12-18T08:56:11;39.63;;;26.30;;
5904;SDS011;2978;42.012;24.880;2022-12-18T08:58:38;48.20;;;27.03;;
5904;SDS011;2978;42.012;24.880;2022-12-18T09:01:04;29.83;;;20.83;;
5904;SDS011;2978;42.012;24.880;2022-12-18T09:03:32;22.47;;;15.93;;
5904;SDS011;2978;42.012;24.880;2022-12-18T09:05:58;17.87;;;14.40;;
5904;SDS011;2978;42.012;24.880;2022-12-18T09:08:24;32.03;;;22.70;;
5904;SDS011;2978;42.012;24.880;2022-12-18T09:10:50;40.80;;;29.53;;
5904;SDS011;2978;42.012;24.880;2022-12-18T09:13:16;34.70;;;23.87;;
5904;SDS011;2978;42.012;24.880;2022-12-18T09:15:46;42.20;;;27.27;;
5904;SDS011;2978;42.012;24.880;2022-12-18T09:18:14;42.37;;;28.23;;
5904;SDS011;2978;42.012;24.880;2022-12-18T09:20:40;57.03;;;37.03;;
5904;SDS011;2978;42.012;24.880;2022-12-18T09:23:06;54.70;;;34.90;;
5904;SDS011;2978;42.012;24.880;2022-12-18T09:25:33;53.90;;;36.70;;
5904;SDS011;2978;42.012;24.880;2022-12-18T09:28:00;42.60;;;28.60;;
5904;SDS011;2978;42.012;24.880;2022-12-18T09:30:40;56.53;;;31.70;;
5904;SDS011;2978;42.012;24.880;2022-12-18T09:33:07;47.87;;;32.40;;
5904;SDS011;2978;42.012;24.880;2022-12-18T09:35:35;56.60;;;35.30;;
5904;SDS011;2978;42.012;24.880;2022-12-18T09:38:05;63.30;;;43.53;;
5904;SDS011;2978;42.012;24.880;2022-12-18T09:40:50;39.93;;;25.90;;
5904;SDS011;2978;42.012;24.880;2022-12-18T09:43:28;22.47;;;16.00;;
5904;SDS011;2978;42.012;24.880;2022-12-18T09:46:03;22.10;;;13.53;;
5904;SDS011;2978;42.012;24.880;2022-12-18T09:48:36;17.00;;;12.23;;
5904;SDS011;2978;42.012;24.880;2022-12-18T09:51:10;14.67;;;9.23;;
5904;SDS011;2978;42.012;24.880;2022-12-18T09:53:40;14.53;;;8.73;;
5904;SDS011;2978;42.012;24.880;2022-12-18T09:56:12;12.63;;;8.40;;
5904;SDS011;2978;42.012;24.880;2022-12-18T10:01:18;15.33;;;10.47;;
5904;SDS011;2978;42.012;24.880;2022-12-18T10:03:47;20.70;;;12.20;;
5904;SDS011;2978;42.012;24.880;2022-12-18T10:06:35;21.90;;;13.40;;
5904;SDS011;2978;42.012;24.880;2022-12-18T10:09:23;17.43;;;13.50;;
5904;SDS011;2978;42.012;24.880;2022-12-18T10:24:54;34.30;;;20.87;;
5904;SDS011;2978;42.012;24.880;2022-12-18T10:27:29;32.27;;;18.50;;
5904;SDS011;2978;42.012;24.880;2022-12-18T10:29:55;36.03;;;21.60;;
5904;SDS011;2978;42.012;24.880;2022-12-18T10:32:25;31.77;;;22.77;;
5904;SDS011;2978;42.012;24.880;2022-12-18T10:34:55;41.03;;;24.73;;
5904;SDS011;2978;42.012;24.880;2022-12-18T10:37:25;31.50;;;20.73;;
5904;SDS011;2978;42.012;24.880;2022-12-18T10:43:10;32.60;;;21.97;;
5904;SDS011;2978;42.012;24.880;2022-12-18T10:45:38;35.47;;;22.97;;
5904;SDS011;2978;42.012;24.880;2022-12-18T10:48:04;22.93;;;15.97;;
5904;SDS011;2978;42.012;24.880;2022-12-18T10:50:42;23.03;;;15.67;;
5904;SDS011;2978;42.012;24.880;2022-12-18T10:53:16;26.60;;;16.33;;
5904;SDS011;2978;42.012;24.880;2022-12-18T10:55:48;34.10;;;22.60;;
5904;SDS011;2978;42.012;24.880;2022-12-18T11:01:16;24.67;;;14.04;;
5904;SDS011;2978;42.012;24.880;2022-12-18T11:06:25;26.33;;;14.90;;
5904;SDS011;2978;42.012;24.880;2022-12-18T11:08:57;16.20;;;10.83;;
5904;SDS011;2978;42.012;24.880;2022-12-18T11:11:31;23.17;;;14.83;;
5904;SDS011;2978;42.012;24.880;2022-12-18T11:14:05;16.87;;;10.27;;
5904;SDS011;2978;42.012;24.880;2022-12-18T11:16:52;15.00;;;8.77;;
5904;SDS011;2978;42.012;24.880;2022-12-18T11:22:19;18.50;;;8.20;;
5904;SDS011;2978;42.012;24.880;2022-12-18T11:24:52;34.47;;;14.43;;
5904;SDS011;2978;42.012;24.880;2022-12-18T11:28:00;18.00;;;9.53;;
5904;SDS011;2978;42.012;24.880;2022-12-18T11:30:29;12.47;;;7.80;;
5904;SDS011;2978;42.012;24.880;2022-12-18T11:35:58;11.00;;;7.50;;
5904;SDS011;2978;42.012;24.880;2022-12-18T11:41:00;15.57;;;10.57;;
5904;SDS011;2978;42.012;24.880;2022-12-18T11:43:31;19.67;;;13.50;;
5904;SDS011;2978;42.012;24.880;2022-12-18T11:46:07;13.83;;;9.87;;
5904;SDS011;2978;42.012;24.880;2022-12-18T11:48:44;16.90;;;12.30;;
5904;SDS011;2978;42.012;24.880;2022-12-18T11:51:18;18.27;;;13.30;;
5904;SDS011;2978;42.012;24.880;2022-12-18T11:53:58;12.60;;;9.47;;
5904;SDS011;2978;42.012;24.880;2022-12-18T11:56:32;21.97;;;15.57;;
5904;SDS011;2978;42.012;24.880;2022-12-18T12:02:03;11.43;;;8.00;;
5904;SDS011;2978;42.012;24.880;2022-12-18T12:05:03;13.60;;;10.20;;
5904;SDS011;2978;42.012;24.880;2022-12-18T12:07:54;15.60;;;10.57;;
5904;SDS011;2978;42.012;24.880;2022-12-18T12:13:20;16.77;;;11.27;;
5904;SDS011;2978;42.012;24.880;2022-12-18T12:32:44;13.07;;;10.60;;
5904;SDS011;2978;42.012;24.880;2022-12-18T12:35:26;19.53;;;11.77;;
5904;SDS011;2978;42.012;24.880;2022-12-18T12:38:12;34.20;;;13.90;;
5904;SDS011;2978;42.012;24.880;2022-12-18T12:44:16;28.67;;;13.50;;
5904;SDS011;2978;42.012;24.880;2022-12-18T12:46:56;17.33;;;11.63;;
5904;SDS011;2978;42.012;24.880;2022-12-18T12:49:28;12.77;;;9.50;;
5904;SDS011;2978;42.012;24.880;2022-12-18T12:52:00;14.40;;;10.17;;
5904;SDS011;2978;42.012;24.880;2022-12-18T12:54:32;16.93;;;11.00;;
5904;SDS011;2978;42.012;24.880;2022-12-18T12:57:05;12.00;;;9.77;;
5904;SDS011;2978;42.012;24.880;2022-12-18T12:59:37;12.03;;;9.00;;
5904;SDS011;2978;42.012;24.880;2022-12-18T13:07:49;40.23;;;16.23;;
5904;SDS011;2978;42.012;24.880;2022-12-18T13:15:47;26.13;;;15.57;;
5904;SDS011;2978;42.012;24.880;2022-12-18T13:20:53;27.00;;;14.37;;
5904;SDS011;2978;42.012;24.880;2022-12-18T13:23:41;29.17;;;14.27;;
5904;SDS011;2978;42.012;24.880;2022-12-18T13:33:41;28.20;;;19.77;;
5904;SDS011;2978;42.012;24.880;2022-12-18T13:36:31;31.83;;;17.80;;
5904;SDS011;2978;42.012;24.880;2022-12-18T13:41:39;36.93;;;24.57;;
5904;SDS011;2978;42.012;24.880;2022-12-18T13:46:49;37.03;;;21.80;;
5904;SDS011;2978;42.012;24.880;2022-12-18T13:49:24;41.37;;;24.13;;
5904;SDS011;2978;42.012;24.880;2022-12-18T13:51:56;58.33;;;28.47;;
5904;SDS011;2978;42.012;24.880;2022-12-18T13:54:39;46.50;;;27.30;;
5904;SDS011;2978;42.012;24.880;2022-12-18T13:57:23;44.53;;;25.53;;
5904;SDS011;2978;42.012;24.880;2022-12-18T13:59:54;36.33;;;27.20;;
5904;SDS011;2978;42.012;24.880;2022-12-18T14:02:22;30.63;;;21.10;;
5904;SDS011;2978;42.012;24.880;2022-12-18T14:04:52;42.10;;;26.97;;
5904;SDS011;2978;42.012;24.880;2022-12-18T14:07:19;31.40;;;21.40;;
5904;SDS011;2978;42.012;24.880;2022-12-18T14:12:23;28.00;;;18.97;;
5904;SDS011;2978;42.012;24.880;2022-12-18T14:17:57;21.30;;;16.70;;
5904;SDS011;2978;42.012;24.880;2022-12-18T14:20:25;21.93;;;16.40;;
5904;SDS011;2978;42.012;24.880;2022-12-18T14:22:52;25.40;;;16.13;;
5904;SDS011;2978;42.012;24.880;2022-12-18T14:25:18;21.40;;;15.50;;
5904;SDS011;2978;42.012;24.880;2022-12-18T14:30:25;29.60;;;17.53;;
5904;SDS011;2978;42.012;24.880;2022-12-18T14:33:02;35.63;;;21.10;;
5904;SDS011;2978;42.012;24.880;2022-12-18T14:35:39;29.40;;;20.47;;
5904;SDS011;2978;42.012;24.880;2022-12-18T14:38:37;29.47;;;21.13;;
5904;SDS011;2978;42.012;24.880;2022-12-18T14:41:11;24.67;;;17.07;;
5904;SDS011;2978;42.012;24.880;2022-12-18T14:43:39;34.40;;;22.10;;
5904;SDS011;2978;42.012;24.880;2022-12-18T14:48:59;32.20;;;23.60;;
5904;SDS011;2978;42.012;24.880;2022-12-18T14:51:28;26.60;;;19.03;;
5904;SDS011;2978;42.012;24.880;2022-12-18T14:56:24;31.33;;;18.80;;
5904;SDS011;2978;42.012;24.880;2022-12-18T14:59:03;29.00;;;19.20;;
5904;SDS011;2978;42.012;24.880;2022-12-18T15:01:32;22.03;;;15.97;;
5904;SDS011;2978;42.012;24.880;2022-12-18T15:04:00;28.07;;;19.60;;
5904;SDS011;2978;42.012;24.880;2022-12-18T15:06:28;35.67;;;21.10;;
5904;SDS011;2978;42.012;24.880;2022-12-18T15:08:55;35.57;;;22.70;;
5904;SDS011;2978;42.012;24.880;2022-12-18T15:11:28;26.43;;;18.10;;
5904;SDS011;2978;42.012;24.880;2022-12-18T15:13:59;23.30;;;13.37;;
5904;SDS011;2978;42.012;24.880;2022-12-18T15:16:25;16.53;;;10.93;;
5904;SDS011;2978;42.012;24.880;2022-12-18T15:18:51;18.63;;;12.40;;
5904;SDS011;2978;42.012;24.880;2022-12-18T15:21:18;18.93;;;11.90;;
5904;SDS011;2978;42.012;24.880;2022-12-18T15:23:46;16.13;;;11.13;;
5904;SDS011;2978;42.012;24.880;2022-12-18T15:26:15;20.37;;;11.97;;
5904;SDS011;2978;42.012;24.880;2022-12-18T15:28:47;19.17;;;12.83;;
5904;SDS011;2978;42.012;24.880;2022-12-18T15:31:30;25.97;;;13.60;;
5904;SDS011;2978;42.012;24.880;2022-12-18T15:36:24;19.70;;;14.30;;
5904;SDS011;2978;42.012;24.880;2022-12-18T15:38:50;16.87;;;12.93;;
5904;SDS011;2978;42.012;24.880;2022-12-18T15:41:18;16.43;;;13.03;;
5904;SDS011;2978;42.012;24.880;2022-12-18T15:43:46;14.90;;;11.63;;
5904;SDS011;2978;42.012;24.880;2022-12-18T15:46:17;19.90;;;14.57;;
5904;SDS011;2978;42.012;24.880;2022-12-18T15:48:47;14.33;;;10.83;;
5904;SDS011;2978;42.012;24.880;2022-12-18T15:51:18;13.87;;;9.73;;
5904;SDS011;2978;42.012;24.880;2022-12-18T15:53:50;18.30;;;9.70;;
5904;SDS011;2978;42.012;24.880;2022-12-18T15:56:19;14.70;;;10.80;;
5904;SDS011;2978;42.012;24.880;2022-12-18T15:59:10;18.63;;;13.20;;
5904;SDS011;2978;42.012;24.880;2022-12-18T16:01:38;15.17;;;11.07;;
5904;SDS011;2978;42.012;24.880;2022-12-18T16:04:04;16.17;;;10.37;;
5904;SDS011;2978;42.012;24.880;2022-12-18T16:06:30;18.17;;;13.27;;
5904;SDS011;2978;42.012;24.880;2022-12-18T16:08:55;19.40;;;12.87;;
5904;SDS011;2978;42.012;24.880;2022-12-18T16:16:46;15.73;;;11.93;;
5904;SDS011;2978;42.012;24.880;2022-12-18T16:19:14;19.83;;;12.90;;
5904;SDS011;2978;42.012;24.880;2022-12-18T16:21:40;18.40;;;13.60;;
5904;SDS011;2978;42.012;24.880;2022-12-18T16:24:05;19.53;;;13.37;;
5904;SDS011;2978;42.012;24.880;2022-12-18T16:26:37;20.57;;;15.60;;
5904;SDS011;2978;42.012;24.880;2022-12-18T16:29:03;19.90;;;15.37;;
5904;SDS011;2978;42.012;24.880;2022-12-18T16:31:30;23.87;;;18.07;;
5904;SDS011;2978;42.012;24.880;2022-12-18T16:36:52;17.70;;;14.30;;
5904;SDS011;2978;42.012;24.880;2022-12-18T16:39:31;31.90;;;18.77;;
5904;SDS011;2978;42.012;24.880;2022-12-18T16:42:22;16.40;;;12.50;;
5904;SDS011;2978;42.012;24.880;2022-12-18T16:44:47;22.17;;;12.50;;
5904;SDS011;2978;42.012;24.880;2022-12-18T16:47:14;16.50;;;12.73;;
5904;SDS011;2978;42.012;24.880;2022-12-18T16:49:39;21.23;;;13.90;;
5904;SDS011;2978;42.012;24.880;2022-12-18T16:52:05;21.67;;;15.60;;
5904;SDS011;2978;42.012;24.880;2022-12-18T16:54:30;21.57;;;16.87;;
5904;SDS011;2978;42.012;24.880;2022-12-18T16:56:57;22.50;;;16.50;;
5904;SDS011;2978;42.012;24.880;2022-12-18T16:59:24;26.80;;;19.37;;
5904;SDS011;2978;42.012;24.880;2022-12-18T17:01:50;20.43;;;15.70;;
5904;SDS011;2978;42.012;24.880;2022-12-18T17:04:16;24.90;;;17.80;;
5904;SDS011;2978;42.012;24.880;2022-12-18T17:06:42;25.97;;;17.83;;
5904;SDS011;2978;42.012;24.880;2022-12-18T17:09:11;29.83;;;21.27;;
5904;SDS011;2978;42.012;24.880;2022-12-18T17:11:39;33.53;;;23.63;;
5904;SDS011;2978;42.012;24.880;2022-12-18T17:14:08;23.90;;;19.13;;
5904;SDS011;2978;42.012;24.880;2022-12-18T17:16:37;26.37;;;18.50;;
5904;SDS011;2978;42.012;24.880;2022-12-18T17:19:03;19.80;;;14.43;;